New Orleans NAS, Louisiana
Current Conditions -  °F | °C
As of 4:55 AM on Saturday 20 Dec 2014 (Local Time) from KNBG Reporting Station
Overcast Overcast  
Wind Chill: 51°   Ceiling: 500
Heat Index: 51°   Visibility: 10mi
Dew Point: 50°   Wind: 12mph
Humidity: 96%   Direction: 360°N
Pressure: 30.08"   Gusts: 21mph
Location:  29.83°N, 90.02°W
Report Text: KNBG 201055Z 36010G18KT 10SM OVC005 11/10 A3008 RMK AO2 RAB0959E12B32E43 SLP183 P0000 T01060100 $
Loading
Personal Weather Stations






























Interactive Weather Map New forecast layout! Learn more

10-Day Weather Forecast

Advertisements
Track Severe Weather on mobile